sensor_id;sensor_type;location;lat;lon;timestamp;temperature;humidity
22426;DHT22;11380;50.822;15.790;2023-02-28T00:04:52;-1.50;1.00
22426;DHT22;11380;50.822;15.790;2023-02-28T00:10:00;-1.70;1.00
22426;DHT22;11380;50.822;15.790;2023-02-28T00:15:10;-1.70;1.00
22426;DHT22;11380;50.822;15.790;2023-02-28T00:20:18;-1.90;1.00
22426;DHT22;11380;50.822;15.790;2023-02-28T00:25:26;-2.10;1.00
22426;DHT22;11380;50.822;15.790;2023-02-28T00:30:35;-2.30;1.00
22426;DHT22;11380;50.822;15.790;2023-02-28T00:35:45;-2.60;1.00
22426;DHT22;11380;50.822;15.790;2023-02-28T00:40:54;-2.60;1.00
22426;DHT22;11380;50.822;15.790;2023-02-28T00:46:01;-2.60;1.00
22426;DHT22;11380;50.822;15.790;2023-02-28T00:51:10;-2.80;1.00
22426;DHT22;11380;50.822;15.790;2023-02-28T00:56:17;-3.00;1.00
22426;DHT22;11380;50.822;15.790;2023-02-28T01:01:24;-2.90;1.00
22426;DHT22;11380;50.822;15.790;2023-02-28T01:06:32;-2.90;1.00
22426;DHT22;11380;50.822;15.790;2023-02-28T01:11:40;-3.00;1.00
22426;DHT22;11380;50.822;15.790;2023-02-28T01:16:49;-2.90;1.00
22426;DHT22;11380;50.822;15.790;2023-02-28T01:21:57;-2.70;1.00
22426;DHT22;11380;50.822;15.790;2023-02-28T01:27:13;-2.40;1.00
22426;DHT22;11380;50.822;15.790;2023-02-28T01:32:20;-2.80;1.00
22426;DHT22;11380;50.822;15.790;2023-02-28T01:37:29;-2.90;1.00
22426;DHT22;11380;50.822;15.790;2023-02-28T01:42:36;-3.00;1.00
22426;DHT22;11380;50.822;15.790;2023-02-28T01:47:44;-3.00;1.00
22426;DHT22;11380;50.822;15.790;2023-02-28T01:52:53;-2.90;1.00
22426;DHT22;11380;50.822;15.790;2023-02-28T01:58:04;-2.70;1.00
22426;DHT22;11380;50.822;15.790;2023-02-28T02:03:16;-2.70;1.00
22426;DHT22;11380;50.822;15.790;2023-02-28T02:08:29;-2.70;1.00
22426;DHT22;11380;50.822;15.790;2023-02-28T02:19:36;-3.20;1.00
22426;DHT22;11380;50.822;15.790;2023-02-28T02:25:18;-2.70;1.00
22426;DHT22;11380;50.822;15.790;2023-02-28T02:36:02;-2.80;1.00
22426;DHT22;11380;50.822;15.790;2023-02-28T02:41:46;-2.90;1.00
22426;DHT22;11380;50.822;15.790;2023-02-28T02:46:58;-3.00;1.00
22426;DHT22;11380;50.822;15.790;2023-02-28T02:52:09;-2.90;1.00
22426;DHT22;11380;50.822;15.790;2023-02-28T02:57:32;-2.90;1.00
22426;DHT22;11380;50.822;15.790;2023-02-28T03:02:41;-2.70;1.00
22426;DHT22;11380;50.822;15.790;2023-02-28T03:07:50;-2.70;1.00
22426;DHT22;11380;50.822;15.790;2023-02-28T03:18:56;-2.70;1.00
22426;DHT22;11380;50.822;15.790;2023-02-28T03:24:07;-2.50;1.00
22426;DHT22;11380;50.822;15.790;2023-02-28T03:35:06;-2.60;1.00
22426;DHT22;11380;50.822;15.790;2023-02-28T03:40:28;-2.50;1.00
22426;DHT22;11380;50.822;15.790;2023-02-28T03:45:38;-2.60;1.00
22426;DHT22;11380;50.822;15.790;2023-02-28T03:50:49;-2.80;1.00
22426;DHT22;11380;50.822;15.790;2023-02-28T04:01:38;-2.50;1.00
22426;DHT22;11380;50.822;15.790;2023-02-28T04:06:52;-2.40;1.00
22426;DHT22;11380;50.822;15.790;2023-02-28T04:12:02;-2.70;1.00
22426;DHT22;11380;50.822;15.790;2023-02-28T04:17:10;-2.90;1.00
22426;DHT22;11380;50.822;15.790;2023-02-28T04:22:17;-2.50;1.00
22426;DHT22;11380;50.822;15.790;2023-02-28T04:27:25;-2.70;1.00
22426;DHT22;11380;50.822;15.790;2023-02-28T04:32:31;-2.70;1.00
22426;DHT22;11380;50.822;15.790;2023-02-28T04:37:39;-2.70;1.00
22426;DHT22;11380;50.822;15.790;2023-02-28T04:42:46;-2.60;1.00
22426;DHT22;11380;50.822;15.790;2023-02-28T04:47:52;-2.40;1.00
22426;DHT22;11380;50.822;15.790;2023-02-28T04:52:59;-2.30;1.00
22426;DHT22;11380;50.822;15.790;2023-02-28T04:58:07;-2.30;1.00
22426;DHT22;11380;50.822;15.790;2023-02-28T05:03:20;-2.40;1.00
22426;DHT22;11380;50.822;15.790;2023-02-28T05:08:30;-2.20;1.00
22426;DHT22;11380;50.822;15.790;2023-02-28T05:13:41;-2.20;1.00
22426;DHT22;11380;50.822;15.790;2023-02-28T05:18:47;-2.30;1.00
22426;DHT22;11380;50.822;15.790;2023-02-28T05:23:56;-2.20;1.00
22426;DHT22;11380;50.822;15.790;2023-02-28T05:29:06;-2.20;1.00
22426;DHT22;11380;50.822;15.790;2023-02-28T05:34:14;-2.10;1.00
22426;DHT22;11380;50.822;15.790;2023-02-28T05:39:21;-2.10;1.00
22426;DHT22;11380;50.822;15.790;2023-02-28T05:44:29;-2.10;1.00
22426;DHT22;11380;50.822;15.790;2023-02-28T05:49:37;-2.10;1.00
22426;DHT22;11380;50.822;15.790;2023-02-28T05:54:44;-2.00;1.00
22426;DHT22;11380;50.822;15.790;2023-02-28T05:59:55;-2.00;1.00
22426;DHT22;11380;50.822;15.790;2023-02-28T06:05:02;-2.10;1.00
22426;DHT22;11380;50.822;15.790;2023-02-28T06:10:11;-2.00;1.00
22426;DHT22;11380;50.822;15.790;2023-02-28T06:15:18;-2.10;1.00
22426;DHT22;11380;50.822;15.790;2023-02-28T06:20:27;-2.20;1.00
22426;DHT22;11380;50.822;15.790;2023-02-28T06:25:35;-2.10;1.00
22426;DHT22;11380;50.822;15.790;2023-02-28T06:30:42;-2.00;1.00
22426;DHT22;11380;50.822;15.790;2023-02-28T06:35:51;-2.00;1.00
22426;DHT22;11380;50.822;15.790;2023-02-28T06:41:00;-1.80;1.00
22426;DHT22;11380;50.822;15.790;2023-02-28T06:46:10;-1.80;1.00
22426;DHT22;11380;50.822;15.790;2023-02-28T06:51:20;-1.90;1.00
22426;DHT22;11380;50.822;15.790;2023-02-28T06:56:27;-1.90;1.00
22426;DHT22;11380;50.822;15.790;2023-02-28T07:01:34;-2.00;1.00
22426;DHT22;11380;50.822;15.790;2023-02-28T07:06:42;-1.80;1.00
22426;DHT22;11380;50.822;15.790;2023-02-28T07:11:49;-1.60;1.00
22426;DHT22;11380;50.822;15.790;2023-02-28T07:16:56;-1.30;1.00
22426;DHT22;11380;50.822;15.790;2023-02-28T07:22:04;-1.20;1.00
22426;DHT22;11380;50.822;15.790;2023-02-28T07:27:13;-1.10;1.00
22426;DHT22;11380;50.822;15.790;2023-02-28T07:32:28;-0.90;1.00
22426;DHT22;11380;50.822;15.790;2023-02-28T07:37:35;-0.60;1.00
22426;DHT22;11380;50.822;15.790;2023-02-28T07:42:43;-0.70;1.00
22426;DHT22;11380;50.822;15.790;2023-02-28T07:47:51;-0.50;1.00
22426;DHT22;11380;50.822;15.790;2023-02-28T07:53:00;-0.40;1.00
22426;DHT22;11380;50.822;15.790;2023-02-28T07:58:07;-0.40;1.00
22426;DHT22;11380;50.822;15.790;2023-02-28T08:03:19;-0.40;1.00
22426;DHT22;11380;50.822;15.790;2023-02-28T08:08:29;-0.40;1.00
22426;DHT22;11380;50.822;15.790;2023-02-28T08:13:36;-0.70;1.00
22426;DHT22;11380;50.822;15.790;2023-02-28T08:18:44;-0.70;1.00
22426;DHT22;11380;50.822;15.790;2023-02-28T08:23:51;-0.50;1.00
22426;DHT22;11380;50.822;15.790;2023-02-28T08:28:59;-0.60;1.00
22426;DHT22;11380;50.822;15.790;2023-02-28T08:34:07;-0.30;1.00
22426;DHT22;11380;50.822;15.790;2023-02-28T08:39:19;-0.40;1.00
22426;DHT22;11380;50.822;15.790;2023-02-28T08:44:26;-0.20;1.00
22426;DHT22;11380;50.822;15.790;2023-02-28T08:49:34;0.00;1.00
22426;DHT22;11380;50.822;15.790;2023-02-28T08:54:42;0.40;1.00
22426;DHT22;11380;50.822;15.790;2023-02-28T08:59:50;0.00;1.00
22426;DHT22;11380;50.822;15.790;2023-02-28T09:04:57;0.60;1.00
22426;DHT22;11380;50.822;15.790;2023-02-28T09:10:04;0.30;1.00
22426;DHT22;11380;50.822;15.790;2023-02-28T09:15:13;0.90;1.00
22426;DHT22;11380;50.822;15.790;2023-02-28T09:20:20;-0.20;1.00
22426;DHT22;11380;50.822;15.790;2023-02-28T09:25:27;0.30;1.00
22426;DHT22;11380;50.822;15.790;2023-02-28T09:30:34;0.30;1.00
22426;DHT22;11380;50.822;15.790;2023-02-28T09:35:41;-0.10;1.00
22426;DHT22;11380;50.822;15.790;2023-02-28T09:40:51;0.20;1.00
22426;DHT22;11380;50.822;15.790;2023-02-28T09:51:50;1.50;1.00
22426;DHT22;11380;50.822;15.790;2023-02-28T10:14:04;2.80;1.00
22426;DHT22;11380;50.822;15.790;2023-02-28T10:19:26;3.60;1.00
22426;DHT22;11380;50.822;15.790;2023-02-28T10:24:48;3.00;1.00
22426;DHT22;11380;50.822;15.790;2023-02-28T10:30:00;2.50;1.00
22426;DHT22;11380;50.822;15.790;2023-02-28T10:35:17;3.50;1.00
22426;DHT22;11380;50.822;15.790;2023-02-28T10:40:36;4.50;1.00
22426;DHT22;11380;50.822;15.790;2023-02-28T10:46:04;5.30;1.00
22426;DHT22;11380;50.822;15.790;2023-02-28T10:51:15;5.70;1.00
22426;DHT22;11380;50.822;15.790;2023-02-28T10:56:25;5.20;1.00
22426;DHT22;11380;50.822;15.790;2023-02-28T11:01:40;4.00;1.00
22426;DHT22;11380;50.822;15.790;2023-02-28T11:07:00;4.60;1.00
22426;DHT22;11380;50.822;15.790;2023-02-28T11:17:56;4.00;1.00
22426;DHT22;11380;50.822;15.790;2023-02-28T11:23:24;4.70;1.00
22426;DHT22;11380;50.822;15.790;2023-02-28T11:28:36;3.70;1.00
22426;DHT22;11380;50.822;15.790;2023-02-28T11:33:52;5.10;1.00
22426;DHT22;11380;50.822;15.790;2023-02-28T11:39:08;6.50;1.00
22426;DHT22;11380;50.822;15.790;2023-02-28T11:44:40;7.00;1.00
22426;DHT22;11380;50.822;15.790;2023-02-28T11:50:32;5.60;1.00
22426;DHT22;11380;50.822;15.790;2023-02-28T11:55:39;5.60;1.00
22426;DHT22;11380;50.822;15.790;2023-02-28T12:06:51;5.90;1.00
22426;DHT22;11380;50.822;15.790;2023-02-28T12:12:16;6.00;1.00
22426;DHT22;11380;50.822;15.790;2023-02-28T12:23:26;4.40;1.00
22426;DHT22;11380;50.822;15.790;2023-02-28T12:28:38;3.80;1.00
22426;DHT22;11380;50.822;15.790;2023-02-28T12:33:51;2.60;1.00
22426;DHT22;11380;50.822;15.790;2023-02-28T12:39:04;4.10;1.00
22426;DHT22;11380;50.822;15.790;2023-02-28T12:44:17;2.90;1.00
22426;DHT22;11380;50.822;15.790;2023-02-28T12:55:20;2.50;1.00
22426;DHT22;11380;50.822;15.790;2023-02-28T13:11:33;3.50;1.00
22426;DHT22;11380;50.822;15.790;2023-02-28T13:16:58;2.80;1.00
22426;DHT22;11380;50.822;15.790;2023-02-28T13:22:37;2.60;1.00
22426;DHT22;11380;50.822;15.790;2023-02-28T13:27:41;3.10;1.00
22426;DHT22;11380;50.822;15.790;2023-02-28T13:32:47;4.10;1.00
22426;DHT22;11380;50.822;15.790;2023-02-28T13:38:09;3.10;1.00
22426;DHT22;11380;50.822;15.790;2023-02-28T13:43:09;3.40;1.00
22426;DHT22;11380;50.822;15.790;2023-02-28T13:48:29;3.40;1.00
22426;DHT22;11380;50.822;15.790;2023-02-28T13:53:39;4.20;1.00
22426;DHT22;11380;50.822;15.790;2023-02-28T13:59:12;3.80;1.00
22426;DHT22;11380;50.822;15.790;2023-02-28T14:04:49;2.10;1.00
22426;DHT22;11380;50.822;15.790;2023-02-28T14:20:57;2.20;1.00
22426;DHT22;11380;50.822;15.790;2023-02-28T14:26:23;2.10;1.00
22426;DHT22;11380;50.822;15.790;2023-02-28T14:32:14;2.30;1.00
22426;DHT22;11380;50.822;15.790;2023-02-28T14:37:05;2.30;1.00
22426;DHT22;11380;50.822;15.790;2023-02-28T14:42:33;1.70;1.00
22426;DHT22;11380;50.822;15.790;2023-02-28T14:47:43;2.10;1.00
22426;DHT22;11380;50.822;15.790;2023-02-28T14:52:53;2.10;1.00
22426;DHT22;11380;50.822;15.790;2023-02-28T14:58:03;2.80;1.00
22426;DHT22;11380;50.822;15.790;2023-02-28T15:08:33;1.50;1.00
22426;DHT22;11380;50.822;15.790;2023-02-28T15:13:48;1.50;1.00
22426;DHT22;11380;50.822;15.790;2023-02-28T15:18:59;1.70;1.00
22426;DHT22;11380;50.822;15.790;2023-02-28T15:24:30;1.40;1.00
22426;DHT22;11380;50.822;15.790;2023-02-28T15:29:47;1.70;1.00
22426;DHT22;11380;50.822;15.790;2023-02-28T15:34:57;1.40;1.00
22426;DHT22;11380;50.822;15.790;2023-02-28T15:45:50;1.50;1.00
22426;DHT22;11380;50.822;15.790;2023-02-28T15:51:13;1.10;1.00
22426;DHT22;11380;50.822;15.790;2023-02-28T15:56:39;0.80;1.00
22426;DHT22;11380;50.822;15.790;2023-02-28T16:07:39;0.90;1.00
22426;DHT22;11380;50.822;15.790;2023-02-28T16:12:48;1.00;1.00
22426;DHT22;11380;50.822;15.790;2023-02-28T16:17:57;1.10;1.00
22426;DHT22;11380;50.822;15.790;2023-02-28T16:23:04;0.80;1.00
22426;DHT22;11380;50.822;15.790;2023-02-28T16:28:23;0.80;1.00
22426;DHT22;11380;50.822;15.790;2023-02-28T16:33:42;0.70;1.00
22426;DHT22;11380;50.822;15.790;2023-02-28T16:38:50;0.50;1.00
22426;DHT22;11380;50.822;15.790;2023-02-28T16:43:58;0.40;1.00
22426;DHT22;11380;50.822;15.790;2023-02-28T16:49:11;-0.30;1.00
22426;DHT22;11380;50.822;15.790;2023-02-28T16:54:20;-0.10;1.00
22426;DHT22;11380;50.822;15.790;2023-02-28T16:59:26;-0.20;1.00
22426;DHT22;11380;50.822;15.790;2023-02-28T17:04:34;-0.10;1.00
22426;DHT22;11380;50.822;15.790;2023-02-28T17:09:41;-0.20;1.00
22426;DHT22;11380;50.822;15.790;2023-02-28T17:14:50;-0.50;1.00
22426;DHT22;11380;50.822;15.790;2023-02-28T17:19:58;-0.60;1.00
22426;DHT22;11380;50.822;15.790;2023-02-28T17:25:06;-0.70;1.00
22426;DHT22;11380;50.822;15.790;2023-02-28T17:30:17;-0.90;1.00
22426;DHT22;11380;50.822;15.790;2023-02-28T17:35:27;-1.00;1.00
22426;DHT22;11380;50.822;15.790;2023-02-28T17:40:35;-1.10;1.00
22426;DHT22;11380;50.822;15.790;2023-02-28T17:45:44;-1.10;1.00
22426;DHT22;11380;50.822;15.790;2023-02-28T17:50:54;-1.20;1.00
22426;DHT22;11380;50.822;15.790;2023-02-28T17:56:00;-1.30;1.00
22426;DHT22;11380;50.822;15.790;2023-02-28T18:01:09;-1.40;1.00
22426;DHT22;11380;50.822;15.790;2023-02-28T18:06:19;-1.50;1.00
22426;DHT22;11380;50.822;15.790;2023-02-28T18:11:33;-1.60;99.90
22426;DHT22;11380;50.822;15.790;2023-02-28T18:16:44;-1.50;1.00
22426;DHT22;11380;50.822;15.790;2023-02-28T18:21:52;-1.70;99.90
22426;DHT22;11380;50.822;15.790;2023-02-28T18:27:02;-1.60;99.90
22426;DHT22;11380;50.822;15.790;2023-02-28T18:32:10;-1.80;99.90
22426;DHT22;11380;50.822;15.790;2023-02-28T18:37:18;-1.80;1.00
22426;DHT22;11380;50.822;15.790;2023-02-28T18:42:25;-1.90;3.20
22426;DHT22;11380;50.822;15.790;2023-02-28T18:47:34;-1.90;29.40
22426;DHT22;11380;50.822;15.790;2023-02-28T18:52:42;-2.00;1.00
22426;DHT22;11380;50.822;15.790;2023-02-28T18:57:49;-2.00;1.00
22426;DHT22;11380;50.822;15.790;2023-02-28T19:02:56;-1.90;2.90
22426;DHT22;11380;50.822;15.790;2023-02-28T19:08:04;-1.90;1.00
22426;DHT22;11380;50.822;15.790;2023-02-28T19:13:12;-1.70;1.00
22426;DHT22;11380;50.822;15.790;2023-02-28T19:18:19;-1.70;1.00
22426;DHT22;11380;50.822;15.790;2023-02-28T19:23:27;-1.80;1.00
22426;DHT22;11380;50.822;15.790;2023-02-28T19:28:36;-1.80;1.00
22426;DHT22;11380;50.822;15.790;2023-02-28T19:33:44;-1.90;1.00
22426;DHT22;11380;50.822;15.790;2023-02-28T19:38:52;-2.10;1.00
22426;DHT22;11380;50.822;15.790;2023-02-28T19:43:59;-2.90;1.00
22426;DHT22;11380;50.822;15.790;2023-02-28T19:49:10;-2.60;1.00
22426;DHT22;11380;50.822;15.790;2023-02-28T19:54:17;-2.50;1.00
22426;DHT22;11380;50.822;15.790;2023-02-28T19:59:27;-2.60;1.00
22426;DHT22;11380;50.822;15.790;2023-02-28T20:04:38;-2.60;1.00
22426;DHT22;11380;50.822;15.790;2023-02-28T20:09:46;-2.50;1.00
22426;DHT22;11380;50.822;15.790;2023-02-28T20:14:55;-2.30;1.00
22426;DHT22;11380;50.822;15.790;2023-02-28T20:20:08;-2.30;1.00
22426;DHT22;11380;50.822;15.790;2023-02-28T20:25:17;-2.50;1.00
22426;DHT22;11380;50.822;15.790;2023-02-28T20:30:26;-2.60;1.00
22426;DHT22;11380;50.822;15.790;2023-02-28T20:35:34;-2.80;1.00
22426;DHT22;11380;50.822;15.790;2023-02-28T20:40:44;-2.80;1.00
22426;DHT22;11380;50.822;15.790;2023-02-28T20:45:56;-2.90;1.00
22426;DHT22;11380;50.822;15.790;2023-02-28T20:51:06;-3.00;1.00
22426;DHT22;11380;50.822;15.790;2023-02-28T20:56:19;-3.80;1.00
22426;DHT22;11380;50.822;15.790;2023-02-28T21:01:30;-3.90;1.00
22426;DHT22;11380;50.822;15.790;2023-02-28T21:06:41;-3.70;1.00
22426;DHT22;11380;50.822;15.790;2023-02-28T21:11:52;-3.90;1.00
22426;DHT22;11380;50.822;15.790;2023-02-28T21:17:02;-3.50;1.00
22426;DHT22;11380;50.822;15.790;2023-02-28T21:22:11;-3.90;1.00
22426;DHT22;11380;50.822;15.790;2023-02-28T21:27:18;-3.80;1.00
22426;DHT22;11380;50.822;15.790;2023-02-28T21:32:31;-3.60;1.00
22426;DHT22;11380;50.822;15.790;2023-02-28T21:37:37;-3.80;1.00
22426;DHT22;11380;50.822;15.790;2023-02-28T21:42:44;-3.80;1.00
22426;DHT22;11380;50.822;15.790;2023-02-28T21:47:52;-3.90;1.00
22426;DHT22;11380;50.822;15.790;2023-02-28T21:52:59;-3.70;1.00
22426;DHT22;11380;50.822;15.790;2023-02-28T21:58:07;-4.40;1.00
22426;DHT22;11380;50.822;15.790;2023-02-28T22:03:14;-4.10;1.00
22426;DHT22;11380;50.822;15.790;2023-02-28T22:08:22;-4.20;1.00
22426;DHT22;11380;50.822;15.790;2023-02-28T22:13:29;-4.20;1.00
22426;DHT22;11380;50.822;15.790;2023-02-28T22:18:37;-4.40;1.00
22426;DHT22;11380;50.822;15.790;2023-02-28T22:23:46;-4.50;1.00
22426;DHT22;11380;50.822;15.790;2023-02-28T22:28:54;-4.20;1.00
22426;DHT22;11380;50.822;15.790;2023-02-28T22:34:04;-4.20;1.00
22426;DHT22;11380;50.822;15.790;2023-02-28T22:39:14;-4.10;1.00
22426;DHT22;11380;50.822;15.790;2023-02-28T22:44:21;-4.50;1.00
22426;DHT22;11380;50.822;15.790;2023-02-28T22:49:29;-4.60;1.00
22426;DHT22;11380;50.822;15.790;2023-02-28T22:54:39;-4.70;1.00
22426;DHT22;11380;50.822;15.790;2023-02-28T22:59:47;-5.60;1.00
22426;DHT22;11380;50.822;15.790;2023-02-28T23:04:55;-5.50;1.00
22426;DHT22;11380;50.822;15.790;2023-02-28T23:10:08;-5.80;1.00
22426;DHT22;11380;50.822;15.790;2023-02-28T23:15:20;-5.40;1.00
22426;DHT22;11380;50.822;15.790;2023-02-28T23:20:29;-5.30;1.00
22426;DHT22;11380;50.822;15.790;2023-02-28T23:25:40;-5.40;99.90
22426;DHT22;11380;50.822;15.790;2023-02-28T23:30:49;-5.20;1.00
22426;DHT22;11380;50.822;15.790;2023-02-28T23:36:11;-5.40;1.00
22426;DHT22;11380;50.822;15.790;2023-02-28T23:41:21;-6.30;1.00
22426;DHT22;11380;50.822;15.790;2023-02-28T23:46:30;-6.00;1.00
22426;DHT22;11380;50.822;15.790;2023-02-28T23:51:40;-5.60;1.00
22426;DHT22;11380;50.822;15.790;2023-02-28T23:56:48;-5.90;1.00
